ITY208 LFBO-LIPZ
Flight info
| Callsign | ITY208 |
|---|---|
| Flight time | 1h 17m |
| Altitude | 34000 |
| Route | MEN7H MEN DCT NINUN DCT LATAM DCT ROMAM/N0439F350 DCT ETIDO/N0408F270 DCT NEDRU DCT RILIP DCT EMMEF/N0397F250 DCT LAPRI/N0439F340 DCT MOGBO DCT TZO DCT OSKOR DCT ADOSA/N0361F190 L612 ALBET ALBET2E |
| Aircraft | A20N/M-SDE2E3FGHIJ1RWXY/LB1 |
Departure
| Time | 2026-04-29 18:16 |
|---|---|
| Airport | Toulouse-Blagnac Airport (LFBO) |
Arrival
| Time | 2026-04-29 19:33 |
|---|---|
| Airport | Venice Marco Polo Airport (LIPZ) |
| Time | Latitude | Longitude | Altitude | Speed | Heading |
|---|---|---|---|---|---|
| 2026-04-29 17:47 | 43.62932 | 1.37354 | 485 ft | 0 kts | 82° |
| 2026-04-29 18:05 | 43.62930 | 1.37338 | 484 ft | 2 kts | 82° |
| 2026-04-29 18:05 | 43.62928 | 1.37318 | 492 ft | 2 kts | 80° |
| 2026-04-29 18:05 | 43.62926 | 1.37297 | 485 ft | 2 kts | 76° |
| 2026-04-29 18:06 | 43.62920 | 1.37279 | 487 ft | 2 kts | 49° |
| 2026-04-29 18:06 | 43.62909 | 1.37265 | 484 ft | 2 kts | 20° |
| 2026-04-29 18:06 | 43.62894 | 1.37262 | 495 ft | 2 kts | 342° |
| 2026-04-29 18:06 | 43.62881 | 1.37272 | 489 ft | 2 kts | 320° |
| 2026-04-29 18:07 | 43.62880 | 1.37273 | 490 ft | 0 kts | 320° |
| 2026-04-29 18:07 | 43.62881 | 1.37272 | 494 ft | 0 kts | 320° |
| 2026-04-29 18:08 | 43.62883 | 1.37270 | 494 ft | 0 kts | 320° |
| 2026-04-29 18:11 | 43.62884 | 1.37268 | 494 ft | 1 kts | 320° |
| 2026-04-29 18:11 | 43.62898 | 1.37249 | 490 ft | 4 kts | 308° |
| 2026-04-29 18:11 | 43.62896 | 1.37197 | 494 ft | 7 kts | 244° |
| 2026-04-29 18:12 | 43.62864 | 1.37126 | 493 ft | 8 kts | 237° |
| 2026-04-29 18:12 | 43.62839 | 1.37043 | 493 ft | 11 kts | 270° |
| 2026-04-29 18:12 | 43.62892 | 1.36953 | 490 ft | 14 kts | 323° |
| 2026-04-29 18:12 | 43.62980 | 1.36862 | 484 ft | 18 kts | 323° |
| 2026-04-29 18:13 | 43.63081 | 1.36754 | 488 ft | 20 kts | 322° |
| 2026-04-29 18:13 | 43.63185 | 1.36646 | 492 ft | 17 kts | 323° |
| 2026-04-29 18:13 | 43.63281 | 1.36547 | 487 ft | 18 kts | 322° |
| 2026-04-29 18:13 | 43.63377 | 1.36446 | 493 ft | 17 kts | 323° |
| 2026-04-29 18:14 | 43.63477 | 1.36341 | 495 ft | 19 kts | 323° |
| 2026-04-29 18:14 | 43.63587 | 1.36228 | 489 ft | 18 kts | 323° |
| 2026-04-29 18:14 | 43.63683 | 1.36129 | 495 ft | 16 kts | 323° |
| 2026-04-29 18:14 | 43.63766 | 1.36044 | 495 ft | 13 kts | 322° |
| 2026-04-29 18:15 | 43.63811 | 1.35951 | 489 ft | 12 kts | 268° |
| 2026-04-29 18:15 | 43.63767 | 1.35845 | 491 ft | 12 kts | 233° |
| 2026-04-29 18:15 | 43.63723 | 1.35799 | 491 ft | 12 kts | 192° |
| 2026-04-29 18:15 | 43.63625 | 1.35879 | 497 ft | 15 kts | 143° |
| 2026-04-29 18:16 | 43.63511 | 1.35999 | 494 ft | 56 kts | 143° |
| 2026-04-29 18:16 | 43.63004 | 1.36527 | 487 ft | 123 kts | 143° |
| 2026-04-29 18:16 | 43.62233 | 1.37341 | 893 ft | 140 kts | 141° |
| 2026-04-29 18:16 | 43.61485 | 1.38155 | 1747 ft | 138 kts | 139° |
| 2026-04-29 18:17 | 43.60715 | 1.38950 | 2459 ft | 139 kts | 142° |
| 2026-04-29 18:17 | 43.59861 | 1.39771 | 2874 ft | 162 kts | 143° |
| 2026-04-29 18:17 | 43.58875 | 1.40712 | 3370 ft | 182 kts | 144° |
| 2026-04-29 18:17 | 43.57779 | 1.41771 | 3785 ft | 206 kts | 144° |
| 2026-04-29 18:18 | 43.56542 | 1.42994 | 4139 ft | 231 kts | 143° |
| 2026-04-29 18:18 | 43.55223 | 1.44371 | 4821 ft | 239 kts | 142° |
| 2026-04-29 18:18 | 43.53867 | 1.45812 | 5457 ft | 255 kts | 143° |
| 2026-04-29 18:18 | 43.52413 | 1.47355 | 6092 ft | 269 kts | 143° |
| 2026-04-29 18:19 | 43.50933 | 1.48921 | 7075 ft | 270 kts | 143° |
| 2026-04-29 18:19 | 43.49423 | 1.50513 | 7893 ft | 276 kts | 143° |
| 2026-04-29 18:19 | 43.48095 | 1.52450 | 8744 ft | 283 kts | 123° |
| 2026-04-29 18:19 | 43.47425 | 1.55034 | 9551 ft | 295 kts | 98° |
| 2026-04-29 18:20 | 43.47622 | 1.57870 | 10278 ft | 309 kts | 73° |
| 2026-04-29 18:20 | 43.48683 | 1.60553 | 10640 ft | 333 kts | 50° |
| 2026-04-29 18:20 | 43.50532 | 1.62599 | 10984 ft | 353 kts | 27° |
| 2026-04-29 18:20 | 43.52905 | 1.63705 | 11491 ft | 365 kts | 12° |
| 2026-04-29 18:21 | 43.55356 | 1.64387 | 12404 ft | 363 kts | 11° |
| 2026-04-29 18:21 | 43.57831 | 1.65129 | 13265 ft | 367 kts | 13° |
| 2026-04-29 18:21 | 43.60340 | 1.66037 | 13876 ft | 376 kts | 16° |
| 2026-04-29 18:21 | 43.62836 | 1.67072 | 14702 ft | 374 kts | 17° |
| 2026-04-29 18:22 | 43.65317 | 1.68166 | 15486 ft | 376 kts | 18° |
| 2026-04-29 18:22 | 43.67823 | 1.69309 | 16117 ft | 382 kts | 20° |
| 2026-04-29 18:22 | 43.70260 | 1.70796 | 16778 ft | 385 kts | 28° |
| 2026-04-29 18:22 | 43.72543 | 1.72774 | 17438 ft | 389 kts | 37° |
| 2026-04-29 18:23 | 43.74715 | 1.75030 | 18098 ft | 393 kts | 37° |
| 2026-04-29 18:23 | 43.76920 | 1.77296 | 18691 ft | 396 kts | 37° |
| 2026-04-29 18:23 | 43.79145 | 1.79574 | 19282 ft | 399 kts | 37° |
| 2026-04-29 18:23 | 43.81387 | 1.81871 | 19853 ft | 403 kts | 37° |
| 2026-04-29 18:24 | 43.83640 | 1.84203 | 20440 ft | 406 kts | 40° |
| 2026-04-29 18:24 | 43.85689 | 1.86895 | 20985 ft | 408 kts | 50° |
| 2026-04-29 18:24 | 43.87392 | 1.90036 | 21556 ft | 409 kts | 60° |
| 2026-04-29 18:24 | 43.88780 | 1.93495 | 22040 ft | 413 kts | 63° |
| 2026-04-29 18:25 | 43.90152 | 1.97010 | 22600 ft | 416 kts | 63° |
| 2026-04-29 18:25 | 43.91558 | 2.00538 | 23132 ft | 420 kts | 60° |
| 2026-04-29 18:25 | 43.93235 | 2.03891 | 23634 ft | 426 kts | 52° |
| 2026-04-29 18:25 | 43.95163 | 2.07029 | 24102 ft | 429 kts | 51° |
| 2026-04-29 18:26 | 43.97109 | 2.10190 | 24578 ft | 431 kts | 51° |
| 2026-04-29 18:26 | 43.99057 | 2.13373 | 25026 ft | 434 kts | 51° |
| 2026-04-29 18:26 | 44.01015 | 2.16579 | 25475 ft | 436 kts | 51° |
| 2026-04-29 18:26 | 44.02989 | 2.19815 | 25849 ft | 441 kts | 51° |
| 2026-04-29 18:27 | 44.04972 | 2.23071 | 26324 ft | 442 kts | 51° |
| 2026-04-29 18:27 | 44.06972 | 2.26355 | 26702 ft | 446 kts | 51° |
| 2026-04-29 18:27 | 44.08976 | 2.29649 | 27133 ft | 447 kts | 51° |
| 2026-04-29 18:27 | 44.11000 | 2.32980 | 27375 ft | 454 kts | 51° |
| 2026-04-29 18:28 | 44.13039 | 2.36339 | 27836 ft | 454 kts | 51° |
| 2026-04-29 18:28 | 44.15063 | 2.39677 | 28152 ft | 458 kts | 51° |
| 2026-04-29 18:28 | 44.17119 | 2.43070 | 28604 ft | 459 kts | 51° |
| 2026-04-29 18:28 | 44.19214 | 2.46532 | 28906 ft | 463 kts | 51° |
| 2026-04-29 18:29 | 44.21263 | 2.49924 | 29250 ft | 465 kts | 51° |
| 2026-04-29 18:29 | 44.22674 | 2.52265 | 29434 ft | 467 kts | 51° |
| 2026-04-29 18:29 | 44.25440 | 2.56855 | 29983 ft | 468 kts | 51° |
| 2026-04-29 18:29 | 44.27536 | 2.60339 | 30310 ft | 469 kts | 51° |
| 2026-04-29 18:30 | 44.29646 | 2.63847 | 30563 ft | 473 kts | 51° |
| 2026-04-29 18:30 | 44.31772 | 2.67388 | 30860 ft | 474 kts | 51° |
| 2026-04-29 18:30 | 44.33896 | 2.70929 | 31144 ft | 476 kts | 51° |
| 2026-04-29 18:30 | 44.36020 | 2.74475 | 31546 ft | 475 kts | 51° |
| 2026-04-29 18:31 | 44.38140 | 2.78017 | 31913 ft | 475 kts | 51° |
| 2026-04-29 18:31 | 44.40253 | 2.81554 | 32349 ft | 473 kts | 50° |
| 2026-04-29 18:31 | 44.42363 | 2.85090 | 32678 ft | 473 kts | 50° |
| 2026-04-29 18:31 | 44.44469 | 2.88622 | 33037 ft | 473 kts | 50° |
| 2026-04-29 18:32 | 44.46574 | 2.92157 | 33402 ft | 472 kts | 50° |
| 2026-04-29 18:32 | 44.50769 | 2.99215 | 33983 ft | 471 kts | 51° |
| 2026-04-29 18:32 | 44.52858 | 3.02737 | 34009 ft | 469 kts | 51° |
| 2026-04-29 18:33 | 44.57024 | 3.09775 | 34012 ft | 468 kts | 50° |
| 2026-04-29 18:33 | 44.61046 | 3.16979 | 34012 ft | 470 kts | 57° |
| 2026-04-29 18:34 | 44.63765 | 3.23564 | 34011 ft | 469 kts | 61° |
| 2026-04-29 18:34 | 44.67514 | 3.32885 | 34011 ft | 469 kts | 61° |
| 2026-04-29 18:35 | 44.70656 | 3.40719 | 34012 ft | 469 kts | 61° |
| 2026-04-29 18:35 | 44.73915 | 3.48889 | 34007 ft | 469 kts | 61° |
| 2026-04-29 18:36 | 44.77100 | 3.56899 | 34016 ft | 469 kts | 61° |
| 2026-04-29 18:36 | 44.80257 | 3.64863 | 34011 ft | 469 kts | 61° |
| 2026-04-29 18:37 | 44.83428 | 3.72882 | 34014 ft | 469 kts | 61° |
| 2026-04-29 18:37 | 44.86593 | 3.80911 | 34015 ft | 469 kts | 61° |
| 2026-04-29 18:38 | 44.89754 | 3.88954 | 34018 ft | 468 kts | 61° |
| 2026-04-29 18:38 | 44.92908 | 3.97001 | 34024 ft | 468 kts | 61° |
| 2026-04-29 18:39 | 44.96056 | 4.05056 | 34007 ft | 469 kts | 61° |
| 2026-04-29 18:39 | 44.99199 | 4.13120 | 34008 ft | 469 kts | 61° |
| 2026-04-29 18:40 | 45.02165 | 4.21312 | 34010 ft | 469 kts | 68° |
| 2026-04-29 18:40 | 45.03855 | 4.30185 | 34008 ft | 468 kts | 82° |
| 2026-04-29 18:41 | 45.05284 | 4.48488 | 34002 ft | 468 kts | 84° |
| 2026-04-29 18:42 | 45.05985 | 4.57649 | 34005 ft | 469 kts | 84° |
| 2026-04-29 18:42 | 45.06674 | 4.66826 | 33995 ft | 469 kts | 84° |
| 2026-04-29 18:43 | 45.07356 | 4.76006 | 33993 ft | 469 kts | 84° |
| 2026-04-29 18:43 | 45.08032 | 4.85196 | 33995 ft | 470 kts | 84° |
| 2026-04-29 18:44 | 45.08700 | 4.94386 | 33992 ft | 470 kts | 84° |
| 2026-04-29 18:44 | 45.09360 | 5.03596 | 33986 ft | 471 kts | 83° |
| 2026-04-29 18:45 | 45.10015 | 5.12820 | 34006 ft | 471 kts | 84° |
| 2026-04-29 18:45 | 45.10014 | 5.22098 | 34019 ft | 472 kts | 94° |
| 2026-04-29 18:46 | 45.09594 | 5.31388 | 34022 ft | 473 kts | 93° |
| 2026-04-29 18:46 | 45.09181 | 5.40691 | 34026 ft | 475 kts | 93° |
| 2026-04-29 18:47 | 45.08810 | 5.50021 | 34033 ft | 475 kts | 92° |
| 2026-04-29 18:47 | 45.08467 | 5.59377 | 34050 ft | 476 kts | 92° |
| 2026-04-29 18:48 | 45.08108 | 5.68721 | 34048 ft | 474 kts | 92° |
| 2026-04-29 18:48 | 45.07736 | 5.78063 | 34053 ft | 476 kts | 92° |
| 2026-04-29 18:49 | 45.07286 | 5.87427 | 34048 ft | 477 kts | 95° |
| 2026-04-29 18:49 | 45.06624 | 5.96775 | 34055 ft | 477 kts | 95° |
| 2026-04-29 18:50 | 45.05970 | 6.06054 | 34073 ft | 478 kts | 95° |
| 2026-04-29 18:50 | 45.05319 | 6.15494 | 34085 ft | 479 kts | 94° |
| 2026-04-29 18:51 | 45.04673 | 6.24849 | 34075 ft | 478 kts | 94° |
| 2026-04-29 18:51 | 45.04023 | 6.34149 | 34080 ft | 478 kts | 95° |
| 2026-04-29 18:52 | 45.03359 | 6.43498 | 34080 ft | 478 kts | 95° |
| 2026-04-29 18:52 | 45.02686 | 6.52843 | 34081 ft | 478 kts | 95° |
| 2026-04-29 18:53 | 45.02006 | 6.62195 | 34092 ft | 478 kts | 95° |
| 2026-04-29 18:53 | 45.01325 | 6.71550 | 34096 ft | 479 kts | 95° |
| 2026-04-29 18:54 | 45.00647 | 6.80916 | 34097 ft | 479 kts | 95° |
| 2026-04-29 18:54 | 44.99959 | 6.90290 | 34099 ft | 480 kts | 95° |
| 2026-04-29 18:55 | 44.99264 | 6.99633 | 34082 ft | 478 kts | 95° |
| 2026-04-29 18:55 | 44.98560 | 7.08969 | 34080 ft | 477 kts | 95° |
| 2026-04-29 18:56 | 44.98026 | 7.18304 | 34083 ft | 478 kts | 88° |
| 2026-04-29 18:56 | 44.98097 | 7.27664 | 34068 ft | 476 kts | 88° |
| 2026-04-29 18:57 | 44.98278 | 7.37009 | 34056 ft | 475 kts | 81° |
| 2026-04-29 18:57 | 44.99374 | 7.44635 | 34056 ft | 471 kts | 70° |
| 2026-04-29 18:58 | 45.01731 | 7.53222 | 34049 ft | 469 kts | 65° |
| 2026-04-29 18:58 | 45.04161 | 7.61728 | 34052 ft | 469 kts | 65° |
| 2026-04-29 18:59 | 45.06609 | 7.70351 | 34051 ft | 470 kts | 65° |
| 2026-04-29 18:59 | 45.09040 | 7.78935 | 34056 ft | 470 kts | 65° |
| 2026-04-29 19:00 | 45.11451 | 7.87477 | 34090 ft | 471 kts | 64° |
| 2026-04-29 19:00 | 45.13893 | 7.96159 | 34064 ft | 471 kts | 64° |
| 2026-04-29 19:01 | 45.16316 | 8.04801 | 34053 ft | 472 kts | 64° |
| 2026-04-29 19:01 | 45.18716 | 8.13392 | 34053 ft | 472 kts | 64° |
| 2026-04-29 19:02 | 45.21125 | 8.22050 | 34039 ft | 472 kts | 64° |
| 2026-04-29 19:02 | 45.23531 | 8.30723 | 34046 ft | 472 kts | 64° |
| 2026-04-29 19:03 | 45.25928 | 8.39395 | 34043 ft | 472 kts | 64° |
| 2026-04-29 19:03 | 45.28319 | 8.48082 | 34081 ft | 473 kts | 64° |
| 2026-04-29 19:04 | 45.30710 | 8.56798 | 34086 ft | 474 kts | 64° |
| 2026-04-29 19:04 | 45.33100 | 8.65538 | 34090 ft | 475 kts | 64° |
| 2026-04-29 19:05 | 45.35485 | 8.74295 | 34096 ft | 475 kts | 65° |
| 2026-04-29 19:05 | 45.37867 | 8.83074 | 34092 ft | 476 kts | 65° |
| 2026-04-29 19:06 | 45.40247 | 8.91874 | 34083 ft | 477 kts | 65° |
| 2026-04-29 19:07 | 45.43812 | 9.05122 | 34064 ft | 479 kts | 65° |
| 2026-04-29 19:07 | 45.46188 | 9.13990 | 34075 ft | 480 kts | 65° |
| 2026-04-29 19:08 | 45.48563 | 9.22887 | 34080 ft | 480 kts | 65° |
| 2026-04-29 19:08 | 45.50933 | 9.31799 | 34082 ft | 481 kts | 65° |
| 2026-04-29 19:09 | 45.53297 | 9.40726 | 34118 ft | 482 kts | 65° |
| 2026-04-29 19:09 | 45.55619 | 9.49709 | 34113 ft | 484 kts | 69° |
| 2026-04-29 19:10 | 45.57170 | 9.59098 | 34127 ft | 488 kts | 74° |
| 2026-04-29 19:10 | 45.58591 | 9.68584 | 34102 ft | 489 kts | 74° |
| 2026-04-29 19:11 | 45.59898 | 9.77338 | 34107 ft | 489 kts | 74° |
| 2026-04-29 19:11 | 45.61302 | 9.86846 | 34097 ft | 490 kts | 74° |
| 2026-04-29 19:11 | 45.62002 | 9.91617 | 33944 ft | 490 kts | 75° |
| 2026-04-29 19:12 | 45.62699 | 9.96381 | 33448 ft | 490 kts | 75° |
| 2026-04-29 19:12 | 45.63396 | 10.01152 | 32677 ft | 492 kts | 75° |
| 2026-04-29 19:12 | 45.64095 | 10.05953 | 31773 ft | 495 kts | 75° |
| 2026-04-29 19:12 | 45.64539 | 10.09160 | 31106 ft | 499 kts | 78° |
| 2026-04-29 19:13 | 45.64924 | 10.15820 | 29889 ft | 505 kts | 89° |
| 2026-04-29 19:13 | 45.64862 | 10.20814 | 29215 ft | 499 kts | 92° |
| 2026-04-29 19:13 | 45.64411 | 10.25751 | 28171 ft | 503 kts | 103° |
| 2026-04-29 19:13 | 45.63533 | 10.30543 | 27209 ft | 495 kts | 104° |
| 2026-04-29 19:14 | 45.62640 | 10.35256 | 26302 ft | 487 kts | 105° |
| 2026-04-29 19:14 | 45.61749 | 10.39886 | 25398 ft | 480 kts | 105° |
| 2026-04-29 19:14 | 45.60860 | 10.44449 | 24549 ft | 473 kts | 105° |
| 2026-04-29 19:14 | 45.59984 | 10.48926 | 23823 ft | 463 kts | 105° |
| 2026-04-29 19:15 | 45.59128 | 10.53276 | 23277 ft | 447 kts | 105° |
| 2026-04-29 19:15 | 45.58298 | 10.57480 | 22757 ft | 433 kts | 104° |
| 2026-04-29 19:15 | 45.57484 | 10.61594 | 22230 ft | 428 kts | 104° |
| 2026-04-29 19:15 | 45.56679 | 10.65656 | 21725 ft | 423 kts | 104° |
| 2026-04-29 19:16 | 45.55882 | 10.69670 | 21209 ft | 418 kts | 104° |
| 2026-04-29 19:16 | 45.55092 | 10.73640 | 20704 ft | 413 kts | 104° |
| 2026-04-29 19:16 | 45.54320 | 10.77514 | 20195 ft | 409 kts | 104° |
| 2026-04-29 19:16 | 45.53534 | 10.81447 | 19707 ft | 405 kts | 104° |
| 2026-04-29 19:17 | 45.52764 | 10.85291 | 19206 ft | 402 kts | 104° |
| 2026-04-29 19:17 | 45.51999 | 10.89107 | 18712 ft | 398 kts | 104° |
| 2026-04-29 19:17 | 45.51240 | 10.92884 | 18195 ft | 395 kts | 104° |
| 2026-04-29 19:17 | 45.50488 | 10.96623 | 17694 ft | 390 kts | 105° |
| 2026-04-29 19:18 | 45.49754 | 11.00269 | 17216 ft | 385 kts | 105° |
| 2026-04-29 19:18 | 45.49256 | 11.02736 | 16894 ft | 382 kts | 105° |
| 2026-04-29 19:18 | 45.48289 | 11.07518 | 16254 ft | 377 kts | 105° |
| 2026-04-29 19:18 | 45.47565 | 11.11092 | 15797 ft | 373 kts | 105° |
| 2026-04-29 19:19 | 45.46847 | 11.14623 | 15330 ft | 369 kts | 105° |
| 2026-04-29 19:19 | 45.46135 | 11.18127 | 14862 ft | 366 kts | 106° |
| 2026-04-29 19:19 | 45.45428 | 11.21597 | 14408 ft | 363 kts | 106° |
| 2026-04-29 19:19 | 45.44726 | 11.25038 | 13944 ft | 361 kts | 106° |
| 2026-04-29 19:20 | 45.44027 | 11.28456 | 13479 ft | 358 kts | 106° |
| 2026-04-29 19:20 | 45.43334 | 11.31837 | 13028 ft | 353 kts | 106° |
| 2026-04-29 19:20 | 45.42649 | 11.35174 | 12582 ft | 349 kts | 106° |
| 2026-04-29 19:20 | 45.41970 | 11.38473 | 12136 ft | 346 kts | 106° |
| 2026-04-29 19:21 | 45.41297 | 11.41738 | 11701 ft | 342 kts | 105° |
| 2026-04-29 19:21 | 45.40629 | 11.44973 | 11263 ft | 339 kts | 105° |
| 2026-04-29 19:21 | 45.39967 | 11.48180 | 10830 ft | 336 kts | 105° |
| 2026-04-29 19:21 | 45.39311 | 11.51350 | 10530 ft | 329 kts | 105° |
| 2026-04-29 19:22 | 45.38681 | 11.54384 | 10323 ft | 312 kts | 105° |
| 2026-04-29 19:22 | 45.38080 | 11.57293 | 9982 ft | 301 kts | 106° |
| 2026-04-29 19:22 | 45.37485 | 11.60165 | 9852 ft | 306 kts | 106° |
| 2026-04-29 19:22 | 45.36881 | 11.63067 | 9709 ft | 305 kts | 106° |
| 2026-04-29 19:23 | 45.36284 | 11.65923 | 9513 ft | 299 kts | 106° |
| 2026-04-29 19:23 | 45.35694 | 11.68746 | 9169 ft | 296 kts | 106° |
| 2026-04-29 19:23 | 45.35107 | 11.71540 | 8802 ft | 294 kts | 106° |
| 2026-04-29 19:23 | 45.34526 | 11.74312 | 8433 ft | 291 kts | 105° |
| 2026-04-29 19:24 | 45.33951 | 11.77058 | 8071 ft | 288 kts | 106° |
| 2026-04-29 19:24 | 45.33381 | 11.79772 | 7718 ft | 285 kts | 105° |
| 2026-04-29 19:24 | 45.32815 | 11.82458 | 7358 ft | 283 kts | 105° |
| 2026-04-29 19:24 | 45.32255 | 11.85122 | 6998 ft | 280 kts | 105° |
| 2026-04-29 19:25 | 45.31698 | 11.87768 | 6641 ft | 278 kts | 105° |
| 2026-04-29 19:25 | 45.31151 | 11.90353 | 6488 ft | 267 kts | 104° |
| 2026-04-29 19:25 | 45.30631 | 11.92796 | 6334 ft | 250 kts | 104° |
| 2026-04-29 19:25 | 45.30144 | 11.95087 | 6227 ft | 236 kts | 104° |
| 2026-04-29 19:26 | 45.29678 | 11.97291 | 6034 ft | 230 kts | 104° |
| 2026-04-29 19:26 | 45.29220 | 11.99466 | 5727 ft | 229 kts | 104° |
| 2026-04-29 19:26 | 45.28767 | 12.01609 | 5490 ft | 224 kts | 104° |
| 2026-04-29 19:26 | 45.28347 | 12.03724 | 5262 ft | 218 kts | 96° |
| 2026-04-29 19:27 | 45.28448 | 12.05827 | 5177 ft | 221 kts | 69° |
| 2026-04-29 19:27 | 45.29231 | 12.07720 | 5088 ft | 224 kts | 50° |
| 2026-04-29 19:27 | 45.30307 | 12.09302 | 4930 ft | 223 kts | 43° |
| 2026-04-29 19:27 | 45.31460 | 12.10750 | 4674 ft | 220 kts | 42° |
| 2026-04-29 19:28 | 45.32588 | 12.12191 | 4404 ft | 217 kts | 43° |
| 2026-04-29 19:28 | 45.33705 | 12.13620 | 4146 ft | 215 kts | 43° |
| 2026-04-29 19:28 | 45.34814 | 12.15037 | 3872 ft | 214 kts | 43° |
| 2026-04-29 19:28 | 45.35913 | 12.16444 | 3592 ft | 211 kts | 43° |
| 2026-04-29 19:29 | 45.36990 | 12.17824 | 3320 ft | 206 kts | 43° |
| 2026-04-29 19:29 | 45.38043 | 12.19171 | 3029 ft | 199 kts | 43° |
| 2026-04-29 19:29 | 45.39048 | 12.20460 | 2768 ft | 191 kts | 43° |
| 2026-04-29 19:29 | 45.40014 | 12.21697 | 2518 ft | 182 kts | 43° |
| 2026-04-29 19:30 | 45.40904 | 12.22837 | 2305 ft | 162 kts | 44° |
| 2026-04-29 19:30 | 45.41698 | 12.23855 | 2126 ft | 143 kts | 44° |
| 2026-04-29 19:30 | 45.42395 | 12.24749 | 1928 ft | 127 kts | 45° |
| 2026-04-29 19:30 | 45.43025 | 12.25559 | 1760 ft | 120 kts | 45° |
| 2026-04-29 19:31 | 45.43645 | 12.26356 | 1590 ft | 121 kts | 45° |
| 2026-04-29 19:31 | 45.44263 | 12.27165 | 1395 ft | 120 kts | 45° |
| 2026-04-29 19:31 | 45.44875 | 12.27995 | 1257 ft | 123 kts | 46° |
| 2026-04-29 19:31 | 45.45525 | 12.28791 | 1108 ft | 124 kts | 43° |
| 2026-04-29 19:32 | 45.46155 | 12.29586 | 895 ft | 122 kts | 45° |
| 2026-04-29 19:32 | 45.46786 | 12.30386 | 733 ft | 124 kts | 42° |
| 2026-04-29 19:32 | 45.47420 | 12.31207 | 539 ft | 121 kts | 45° |
| 2026-04-29 19:32 | 45.48058 | 12.32027 | 375 ft | 124 kts | 41° |
| 2026-04-29 19:33 | 45.48698 | 12.32844 | 231 ft | 126 kts | 42° |
| 2026-04-29 19:33 | 45.49333 | 12.33668 | 86 ft | 120 kts | 40° |
| 2026-04-29 19:33 | 45.49924 | 12.34434 | 11 ft | 96 kts | 42° |
| 2026-04-29 19:33 | 45.50270 | 12.34876 | 12 ft | 38 kts | 42° |
| 2026-04-29 19:34 | 45.50407 | 12.35027 | 9 ft | 20 kts | 23° |
| 2026-04-29 19:34 | 45.50532 | 12.35068 | 11 ft | 15 kts | 12° |
| 2026-04-29 19:34 | 45.50600 | 12.35039 | 11 ft | 11 kts | 307° |
| 2026-04-29 19:34 | 45.50609 | 12.34927 | 12 ft | 13 kts | 270° |
| 2026-04-29 19:35 | 45.50608 | 12.34808 | 13 ft | 13 kts | 264° |
| 2026-04-29 19:35 | 45.50558 | 12.34693 | 15 ft | 15 kts | 223° |
| 2026-04-29 19:35 | 45.50498 | 12.34589 | 17 ft | 13 kts | 261° |
| 2026-04-29 19:35 | 45.50552 | 12.34475 | 15 ft | 17 kts | 311° |
| 2026-04-29 19:36 | 45.50617 | 12.34361 | 14 ft | 8 kts | 277° |
| 2026-04-29 19:36 | 45.50566 | 12.34330 | 15 ft | 9 kts | 187° |
| 2026-04-29 19:36 | 45.50550 | 12.34262 | 15 ft | 7 kts | 265° |
| 2026-04-29 19:36 | 45.50549 | 12.34226 | 15 ft | 2 kts | 270° |
| 2026-04-29 19:37 | 45.50548 | 12.34214 | 15 ft | 0 kts | 264° |